sensor_id;sensor_type;location;lat;lon;timestamp;temperature;humidity
25300;DHT22;13241;51.208;4.432;2023-06-14T00:00:03;21.70;91.50
25300;DHT22;13241;51.208;4.432;2023-06-14T00:02:31;21.70;91.50
25300;DHT22;13241;51.208;4.432;2023-06-14T00:04:58;21.80;91.50
25300;DHT22;13241;51.208;4.432;2023-06-14T00:07:39;21.70;91.50
25300;DHT22;13241;51.208;4.432;2023-06-14T00:10:13;21.70;91.60
25300;DHT22;13241;51.208;4.432;2023-06-14T00:12:41;21.60;91.60
25300;DHT22;13241;51.208;4.432;2023-06-14T00:15:08;21.60;91.60
25300;DHT22;13241;51.208;4.432;2023-06-14T00:17:36;21.50;91.50
25300;DHT22;13241;51.208;4.432;2023-06-14T00:20:05;21.50;91.60
25300;DHT22;13241;51.208;4.432;2023-06-14T00:22:33;21.40;91.50
25300;DHT22;13241;51.208;4.432;2023-06-14T00:25:01;21.40;91.50
25300;DHT22;13241;51.208;4.432;2023-06-14T00:27:45;21.40;91.70
25300;DHT22;13241;51.208;4.432;2023-06-14T00:30:14;21.10;91.80
25300;DHT22;13241;51.208;4.432;2023-06-14T00:32:42;21.40;91.70
25300;DHT22;13241;51.208;4.432;2023-06-14T00:35:10;21.30;91.80
25300;DHT22;13241;51.208;4.432;2023-06-14T00:37:37;21.30;91.90
25300;DHT22;13241;51.208;4.432;2023-06-14T00:40:05;21.20;91.90
25300;DHT22;13241;51.208;4.432;2023-06-14T00:42:32;21.10;92.00
25300;DHT22;13241;51.208;4.432;2023-06-14T00:45:00;21.10;91.90
25300;DHT22;13241;51.208;4.432;2023-06-14T00:47:27;21.00;91.90
25300;DHT22;13241;51.208;4.432;2023-06-14T00:49:55;20.80;91.60
25300;DHT22;13241;51.208;4.432;2023-06-14T00:52:25;21.00;91.30
25300;DHT22;13241;51.208;4.432;2023-06-14T00:54:52;21.00;91.20
25300;DHT22;13241;51.208;4.432;2023-06-14T00:57:19;20.90;91.30
25300;DHT22;13241;51.208;4.432;2023-06-14T00:59:48;20.90;91.20
25300;DHT22;13241;51.208;4.432;2023-06-14T01:02:16;20.90;91.20
25300;DHT22;13241;51.208;4.432;2023-06-14T01:04:46;20.90;90.90
25300;DHT22;13241;51.208;4.432;2023-06-14T01:10:15;20.90;90.90
25300;DHT22;13241;51.208;4.432;2023-06-14T01:15:35;20.80;90.80
25300;DHT22;13241;51.208;4.432;2023-06-14T01:18:04;20.70;90.80
25300;DHT22;13241;51.208;4.432;2023-06-14T01:20:33;20.70;90.70
25300;DHT22;13241;51.208;4.432;2023-06-14T01:23:03;20.70;90.40
25300;DHT22;13241;51.208;4.432;2023-06-14T01:25:30;20.70;90.30
25300;DHT22;13241;51.208;4.432;2023-06-14T01:28:00;20.80;90.40
25300;DHT22;13241;51.208;4.432;2023-06-14T01:30:29;20.70;90.30
25300;DHT22;13241;51.208;4.432;2023-06-14T01:32:58;20.70;90.30
25300;DHT22;13241;51.208;4.432;2023-06-14T01:35:25;20.60;90.30
25300;DHT22;13241;51.208;4.432;2023-06-14T01:37:54;20.80;90.30
25300;DHT22;13241;51.208;4.432;2023-06-14T01:40:21;20.60;90.10
25300;DHT22;13241;51.208;4.432;2023-06-14T01:42:50;20.60;89.90
25300;DHT22;13241;51.208;4.432;2023-06-14T01:45:18;20.60;89.80
25300;DHT22;13241;51.208;4.432;2023-06-14T01:47:47;20.60;89.50
25300;DHT22;13241;51.208;4.432;2023-06-14T01:50:15;20.70;89.40
25300;DHT22;13241;51.208;4.432;2023-06-14T01:52:42;20.60;89.00
25300;DHT22;13241;51.208;4.432;2023-06-14T01:55:09;20.60;88.90
25300;DHT22;13241;51.208;4.432;2023-06-14T01:57:38;20.50;89.80
25300;DHT22;13241;51.208;4.432;2023-06-14T02:00:05;20.50;88.70
25300;DHT22;13241;51.208;4.432;2023-06-14T02:02:39;20.50;88.70
25300;DHT22;13241;51.208;4.432;2023-06-14T02:05:07;20.40;89.70
25300;DHT22;13241;51.208;4.432;2023-06-14T02:07:34;20.50;90.00
25300;DHT22;13241;51.208;4.432;2023-06-14T02:10:02;20.60;88.40
25300;DHT22;13241;51.208;4.432;2023-06-14T02:12:29;20.50;88.20
25300;DHT22;13241;51.208;4.432;2023-06-14T02:14:57;20.60;88.80
25300;DHT22;13241;51.208;4.432;2023-06-14T02:17:24;20.50;88.20
25300;DHT22;13241;51.208;4.432;2023-06-14T02:19:54;20.40;88.10
25300;DHT22;13241;51.208;4.432;2023-06-14T02:22:22;20.50;88.10
25300;DHT22;13241;51.208;4.432;2023-06-14T02:24:49;20.50;87.50
25300;DHT22;13241;51.208;4.432;2023-06-14T02:27:27;20.60;88.10
25300;DHT22;13241;51.208;4.432;2023-06-14T02:29:54;20.40;88.20
25300;DHT22;13241;51.208;4.432;2023-06-14T02:32:20;20.40;87.80
25300;DHT22;13241;51.208;4.432;2023-06-14T02:34:47;20.40;88.30
25300;DHT22;13241;51.208;4.432;2023-06-14T02:37:16;20.50;88.40
25300;DHT22;13241;51.208;4.432;2023-06-14T02:39:43;20.50;88.00
25300;DHT22;13241;51.208;4.432;2023-06-14T02:42:10;20.50;87.30
25300;DHT22;13241;51.208;4.432;2023-06-14T02:44:37;20.50;88.00
25300;DHT22;13241;51.208;4.432;2023-06-14T02:47:04;20.50;86.90
25300;DHT22;13241;51.208;4.432;2023-06-14T02:49:31;20.40;86.80
25300;DHT22;13241;51.208;4.432;2023-06-14T02:51:58;20.40;86.60
25300;DHT22;13241;51.208;4.432;2023-06-14T02:54:25;20.30;86.70
25300;DHT22;13241;51.208;4.432;2023-06-14T02:56:52;20.30;87.30
25300;DHT22;13241;51.208;4.432;2023-06-14T02:59:20;20.20;86.70
25300;DHT22;13241;51.208;4.432;2023-06-14T03:01:48;20.20;86.70
25300;DHT22;13241;51.208;4.432;2023-06-14T03:04:15;20.10;86.80
25300;DHT22;13241;51.208;4.432;2023-06-14T03:06:43;20.10;86.80
25300;DHT22;13241;51.208;4.432;2023-06-14T03:09:12;19.90;88.00
25300;DHT22;13241;51.208;4.432;2023-06-14T03:11:40;20.00;87.00
25300;DHT22;13241;51.208;4.432;2023-06-14T03:14:09;20.00;86.60
25300;DHT22;13241;51.208;4.432;2023-06-14T03:16:37;19.90;86.80
25300;DHT22;13241;51.208;4.432;2023-06-14T03:19:05;20.00;87.00
25300;DHT22;13241;51.208;4.432;2023-06-14T03:21:32;19.80;86.70
25300;DHT22;13241;51.208;4.432;2023-06-14T03:24:03;19.90;87.00
25300;DHT22;13241;51.208;4.432;2023-06-14T03:26:31;19.80;86.90
25300;DHT22;13241;51.208;4.432;2023-06-14T03:29:01;19.80;87.00
25300;DHT22;13241;51.208;4.432;2023-06-14T03:31:29;19.80;87.40
25300;DHT22;13241;51.208;4.432;2023-06-14T03:34:02;19.70;87.30
25300;DHT22;13241;51.208;4.432;2023-06-14T03:36:29;19.80;87.30
25300;DHT22;13241;51.208;4.432;2023-06-14T03:38:56;19.80;87.20
25300;DHT22;13241;51.208;4.432;2023-06-14T03:41:23;19.80;87.40
25300;DHT22;13241;51.208;4.432;2023-06-14T03:43:50;19.80;87.60
25300;DHT22;13241;51.208;4.432;2023-06-14T03:46:17;19.70;88.00
25300;DHT22;13241;51.208;4.432;2023-06-14T03:48:44;19.70;87.40
25300;DHT22;13241;51.208;4.432;2023-06-14T03:51:12;19.70;87.20
25300;DHT22;13241;51.208;4.432;2023-06-14T03:53:39;19.70;87.80
25300;DHT22;13241;51.208;4.432;2023-06-14T03:56:26;19.80;87.90
25300;DHT22;13241;51.208;4.432;2023-06-14T03:58:53;19.80;87.40
25300;DHT22;13241;51.208;4.432;2023-06-14T04:01:23;19.70;87.80
25300;DHT22;13241;51.208;4.432;2023-06-14T04:03:54;19.70;88.20
25300;DHT22;13241;51.208;4.432;2023-06-14T04:06:21;19.70;87.40
25300;DHT22;13241;51.208;4.432;2023-06-14T04:08:48;19.70;87.60
25300;DHT22;13241;51.208;4.432;2023-06-14T04:11:16;19.70;88.00
25300;DHT22;13241;51.208;4.432;2023-06-14T04:13:43;19.60;88.60
25300;DHT22;13241;51.208;4.432;2023-06-14T04:16:10;19.70;88.90
25300;DHT22;13241;51.208;4.432;2023-06-14T04:18:37;19.60;89.00
25300;DHT22;13241;51.208;4.432;2023-06-14T04:21:04;19.60;88.40
25300;DHT22;13241;51.208;4.432;2023-06-14T04:23:32;19.50;88.50
25300;DHT22;13241;51.208;4.432;2023-06-14T04:26:00;19.60;88.40
25300;DHT22;13241;51.208;4.432;2023-06-14T04:28:28;19.60;88.60
25300;DHT22;13241;51.208;4.432;2023-06-14T04:30:57;19.50;88.60
25300;DHT22;13241;51.208;4.432;2023-06-14T04:33:30;19.60;89.10
25300;DHT22;13241;51.208;4.432;2023-06-14T04:35:58;19.70;88.90
25300;DHT22;13241;51.208;4.432;2023-06-14T04:38:26;19.80;88.60
25300;DHT22;13241;51.208;4.432;2023-06-14T04:40:55;19.80;88.40
25300;DHT22;13241;51.208;4.432;2023-06-14T04:43:24;19.90;88.60
25300;DHT22;13241;51.208;4.432;2023-06-14T04:45:53;19.70;88.50
25300;DHT22;13241;51.208;4.432;2023-06-14T04:48:22;19.90;88.40
25300;DHT22;13241;51.208;4.432;2023-06-14T04:50:49;20.00;88.60
25300;DHT22;13241;51.208;4.432;2023-06-14T04:53:20;20.00;88.50
25300;DHT22;13241;51.208;4.432;2023-06-14T04:55:52;20.00;88.90
25300;DHT22;13241;51.208;4.432;2023-06-14T04:58:20;20.10;88.50
25300;DHT22;13241;51.208;4.432;2023-06-14T05:00:47;20.10;88.30
25300;DHT22;13241;51.208;4.432;2023-06-14T05:03:14;20.10;88.50
25300;DHT22;13241;51.208;4.432;2023-06-14T05:05:42;20.20;88.40
25300;DHT22;13241;51.208;4.432;2023-06-14T05:08:09;20.30;88.30
25300;DHT22;13241;51.208;4.432;2023-06-14T05:10:37;20.30;88.20
25300;DHT22;13241;51.208;4.432;2023-06-14T05:13:04;20.40;88.10
25300;DHT22;13241;51.208;4.432;2023-06-14T05:15:31;20.40;88.00
25300;DHT22;13241;51.208;4.432;2023-06-14T05:17:58;20.40;88.30
25300;DHT22;13241;51.208;4.432;2023-06-14T05:20:26;20.20;88.80
25300;DHT22;13241;51.208;4.432;2023-06-14T05:22:53;20.40;88.20
25300;DHT22;13241;51.208;4.432;2023-06-14T05:25:21;20.60;88.40
25300;DHT22;13241;51.208;4.432;2023-06-14T05:27:48;20.70;88.10
25300;DHT22;13241;51.208;4.432;2023-06-14T05:30:15;20.60;88.30
25300;DHT22;13241;51.208;4.432;2023-06-14T05:32:42;20.70;88.10
25300;DHT22;13241;51.208;4.432;2023-06-14T05:35:09;20.70;88.00
25300;DHT22;13241;51.208;4.432;2023-06-14T05:37:37;20.70;87.90
25300;DHT22;13241;51.208;4.432;2023-06-14T05:40:04;20.80;88.00
25300;DHT22;13241;51.208;4.432;2023-06-14T05:42:35;20.80;88.10
25300;DHT22;13241;51.208;4.432;2023-06-14T05:45:02;20.80;88.30
25300;DHT22;13241;51.208;4.432;2023-06-14T05:47:29;20.90;88.10
25300;DHT22;13241;51.208;4.432;2023-06-14T05:49:56;21.00;88.10
25300;DHT22;13241;51.208;4.432;2023-06-14T05:52:23;21.10;87.80
25300;DHT22;13241;51.208;4.432;2023-06-14T05:54:50;21.20;88.00
25300;DHT22;13241;51.208;4.432;2023-06-14T05:57:17;21.30;88.30
25300;DHT22;13241;51.208;4.432;2023-06-14T05:59:43;21.60;87.40
25300;DHT22;13241;51.208;4.432;2023-06-14T06:02:10;21.70;87.60
25300;DHT22;13241;51.208;4.432;2023-06-14T06:04:37;21.90;87.00
25300;DHT22;13241;51.208;4.432;2023-06-14T06:07:04;22.00;86.60
25300;DHT22;13241;51.208;4.432;2023-06-14T06:09:32;22.00;87.00
25300;DHT22;13241;51.208;4.432;2023-06-14T06:12:00;22.00;86.70
25300;DHT22;13241;51.208;4.432;2023-06-14T06:14:27;22.20;86.90
25300;DHT22;13241;51.208;4.432;2023-06-14T06:16:54;22.20;85.80
25300;DHT22;13241;51.208;4.432;2023-06-14T06:19:21;22.20;86.20
25300;DHT22;13241;51.208;4.432;2023-06-14T06:21:48;22.20;86.60
25300;DHT22;13241;51.208;4.432;2023-06-14T06:24:15;22.40;86.20
25300;DHT22;13241;51.208;4.432;2023-06-14T06:26:42;22.60;85.80
25300;DHT22;13241;51.208;4.432;2023-06-14T06:29:09;22.70;85.70
25300;DHT22;13241;51.208;4.432;2023-06-14T06:31:36;22.80;85.50
25300;DHT22;13241;51.208;4.432;2023-06-14T06:34:03;23.00;85.60
25300;DHT22;13241;51.208;4.432;2023-06-14T06:36:30;22.90;84.20
25300;DHT22;13241;51.208;4.432;2023-06-14T06:38:57;23.00;85.40
25300;DHT22;13241;51.208;4.432;2023-06-14T06:41:24;23.10;85.40
25300;DHT22;13241;51.208;4.432;2023-06-14T06:43:51;23.20;85.00
25300;DHT22;13241;51.208;4.432;2023-06-14T06:46:18;23.40;84.50
25300;DHT22;13241;51.208;4.432;2023-06-14T06:48:46;23.50;84.30
25300;DHT22;13241;51.208;4.432;2023-06-14T06:51:12;23.60;83.90
25300;DHT22;13241;51.208;4.432;2023-06-14T06:53:42;23.80;83.00
25300;DHT22;13241;51.208;4.432;2023-06-14T06:56:16;23.60;83.00
25300;DHT22;13241;51.208;4.432;2023-06-14T06:58:43;23.70;83.90
25300;DHT22;13241;51.208;4.432;2023-06-14T07:01:09;23.80;83.70
25300;DHT22;13241;51.208;4.432;2023-06-14T07:03:37;24.00;83.90
25300;DHT22;13241;51.208;4.432;2023-06-14T07:06:04;24.10;83.00
25300;DHT22;13241;51.208;4.432;2023-06-14T07:08:31;24.20;82.70
25300;DHT22;13241;51.208;4.432;2023-06-14T07:10:58;24.50;82.90
25300;DHT22;13241;51.208;4.432;2023-06-14T07:13:25;24.50;82.80
25300;DHT22;13241;51.208;4.432;2023-06-14T07:15:54;24.70;82.50
25300;DHT22;13241;51.208;4.432;2023-06-14T07:18:23;24.80;81.40
25300;DHT22;13241;51.208;4.432;2023-06-14T07:20:50;24.80;82.00
25300;DHT22;13241;51.208;4.432;2023-06-14T07:23:17;24.70;81.80
25300;DHT22;13241;51.208;4.432;2023-06-14T07:25:44;24.80;81.70
25300;DHT22;13241;51.208;4.432;2023-06-14T07:28:11;25.10;81.10
25300;DHT22;13241;51.208;4.432;2023-06-14T07:30:38;25.20;81.10
25300;DHT22;13241;51.208;4.432;2023-06-14T07:33:05;25.30;81.50
25300;DHT22;13241;51.208;4.432;2023-06-14T07:35:32;25.40;80.90
25300;DHT22;13241;51.208;4.432;2023-06-14T07:37:59;25.50;81.10
25300;DHT22;13241;51.208;4.432;2023-06-14T07:40:26;25.60;80.50
25300;DHT22;13241;51.208;4.432;2023-06-14T07:42:53;25.70;79.80
25300;DHT22;13241;51.208;4.432;2023-06-14T07:45:21;25.70;80.30
25300;DHT22;13241;51.208;4.432;2023-06-14T07:47:48;25.70;80.10
25300;DHT22;13241;51.208;4.432;2023-06-14T07:50:15;25.80;79.70
25300;DHT22;13241;51.208;4.432;2023-06-14T07:52:42;25.80;79.50
25300;DHT22;13241;51.208;4.432;2023-06-14T07:55:09;26.00;79.60
25300;DHT22;13241;51.208;4.432;2023-06-14T07:57:36;26.00;79.60
25300;DHT22;13241;51.208;4.432;2023-06-14T08:00:03;26.10;79.00
25300;DHT22;13241;51.208;4.432;2023-06-14T08:02:37;26.20;79.10
25300;DHT22;13241;51.208;4.432;2023-06-14T08:05:05;26.30;79.20
25300;DHT22;13241;51.208;4.432;2023-06-14T08:07:31;25.90;78.50
25300;DHT22;13241;51.208;4.432;2023-06-14T08:09:58;25.80;79.50
25300;DHT22;13241;51.208;4.432;2023-06-14T08:12:25;25.50;80.10
25300;DHT22;13241;51.208;4.432;2023-06-14T08:14:52;25.70;80.00
25300;DHT22;13241;51.208;4.432;2023-06-14T08:17:38;25.90;79.70
25300;DHT22;13241;51.208;4.432;2023-06-14T08:20:05;26.00;80.30
25300;DHT22;13241;51.208;4.432;2023-06-14T08:22:33;26.00;79.80
25300;DHT22;13241;51.208;4.432;2023-06-14T08:25:00;25.90;80.10
25300;DHT22;13241;51.208;4.432;2023-06-14T08:27:27;25.80;80.40
25300;DHT22;13241;51.208;4.432;2023-06-14T08:29:56;26.00;80.60
25300;DHT22;13241;51.208;4.432;2023-06-14T08:32:23;26.40;80.40
25300;DHT22;13241;51.208;4.432;2023-06-14T08:34:50;26.40;79.90
25300;DHT22;13241;51.208;4.432;2023-06-14T08:37:31;26.70;80.00
25300;DHT22;13241;51.208;4.432;2023-06-14T08:40:00;26.70;79.40
25300;DHT22;13241;51.208;4.432;2023-06-14T08:42:30;26.80;79.30
25300;DHT22;13241;51.208;4.432;2023-06-14T08:44:58;26.80;78.70
25300;DHT22;13241;51.208;4.432;2023-06-14T08:47:26;26.70;79.30
25300;DHT22;13241;51.208;4.432;2023-06-14T08:49:57;26.90;78.90
25300;DHT22;13241;51.208;4.432;2023-06-14T08:52:27;26.90;78.50
25300;DHT22;13241;51.208;4.432;2023-06-14T08:54:57;26.70;78.70
25300;DHT22;13241;51.208;4.432;2023-06-14T08:57:24;26.70;79.00
25300;DHT22;13241;51.208;4.432;2023-06-14T08:59:52;27.00;76.90
25300;DHT22;13241;51.208;4.432;2023-06-14T09:02:20;26.80;75.90
25300;DHT22;13241;51.208;4.432;2023-06-14T09:04:49;26.20;76.70
25300;DHT22;13241;51.208;4.432;2023-06-14T09:07:18;26.10;77.90
25300;DHT22;13241;51.208;4.432;2023-06-14T09:09:45;26.30;78.60
25300;DHT22;13241;51.208;4.432;2023-06-14T09:12:32;26.40;76.90
25300;DHT22;13241;51.208;4.432;2023-06-14T09:14:59;26.40;75.70
25300;DHT22;13241;51.208;4.432;2023-06-14T09:17:26;26.50;76.60
25300;DHT22;13241;51.208;4.432;2023-06-14T09:19:55;26.50;75.60
25300;DHT22;13241;51.208;4.432;2023-06-14T09:22:22;26.50;76.40
25300;DHT22;13241;51.208;4.432;2023-06-14T09:24:49;26.70;76.80
25300;DHT22;13241;51.208;4.432;2023-06-14T09:27:16;26.80;75.70
25300;DHT22;13241;51.208;4.432;2023-06-14T09:29:43;26.80;75.50
25300;DHT22;13241;51.208;4.432;2023-06-14T09:32:10;26.80;74.40
25300;DHT22;13241;51.208;4.432;2023-06-14T09:34:37;27.00;74.90
25300;DHT22;13241;51.208;4.432;2023-06-14T09:37:04;27.10;74.10
25300;DHT22;13241;51.208;4.432;2023-06-14T09:39:31;27.20;73.70
25300;DHT22;13241;51.208;4.432;2023-06-14T09:41:58;27.30;73.80
25300;DHT22;13241;51.208;4.432;2023-06-14T09:44:25;27.30;74.10
25300;DHT22;13241;51.208;4.432;2023-06-14T09:46:56;27.40;74.70
25300;DHT22;13241;51.208;4.432;2023-06-14T09:49:25;27.60;74.30
25300;DHT22;13241;51.208;4.432;2023-06-14T09:51:55;27.90;74.00
25300;DHT22;13241;51.208;4.432;2023-06-14T09:54:25;28.10;72.40
25300;DHT22;13241;51.208;4.432;2023-06-14T09:56:53;28.10;71.80
25300;DHT22;13241;51.208;4.432;2023-06-14T09:59:26;28.30;72.60
25300;DHT22;13241;51.208;4.432;2023-06-14T10:01:58;28.20;69.40
25300;DHT22;13241;51.208;4.432;2023-06-14T10:04:29;28.10;69.40
25300;DHT22;13241;51.208;4.432;2023-06-14T10:06:58;28.00;69.70
25300;DHT22;13241;51.208;4.432;2023-06-14T10:09:25;27.90;70.00
25300;DHT22;13241;51.208;4.432;2023-06-14T10:11:55;28.00;69.70
25300;DHT22;13241;51.208;4.432;2023-06-14T10:14:22;28.10;67.70
25300;DHT22;13241;51.208;4.432;2023-06-14T10:17:10;28.10;67.90
25300;DHT22;13241;51.208;4.432;2023-06-14T10:19:48;27.80;67.30
25300;DHT22;13241;51.208;4.432;2023-06-14T10:22:32;27.80;66.80
25300;DHT22;13241;51.208;4.432;2023-06-14T10:25:01;27.70;66.00
25300;DHT22;13241;51.208;4.432;2023-06-14T10:27:28;27.70;66.60
25300;DHT22;13241;51.208;4.432;2023-06-14T10:32:25;27.80;67.90
25300;DHT22;13241;51.208;4.432;2023-06-14T10:35:00;27.70;68.00
25300;DHT22;13241;51.208;4.432;2023-06-14T10:37:28;27.90;68.40
25300;DHT22;13241;51.208;4.432;2023-06-14T10:39:55;27.90;67.10
25300;DHT22;13241;51.208;4.432;2023-06-14T10:42:33;27.90;66.70
25300;DHT22;13241;51.208;4.432;2023-06-14T10:45:00;28.10;67.10
25300;DHT22;13241;51.208;4.432;2023-06-14T10:47:32;28.20;67.00
25300;DHT22;13241;51.208;4.432;2023-06-14T10:50:09;28.30;67.50
25300;DHT22;13241;51.208;4.432;2023-06-14T10:52:42;28.40;66.60
25300;DHT22;13241;51.208;4.432;2023-06-14T10:55:14;28.20;66.60
25300;DHT22;13241;51.208;4.432;2023-06-14T10:57:45;28.30;66.20
25300;DHT22;13241;51.208;4.432;2023-06-14T11:00:16;28.20;65.90
25300;DHT22;13241;51.208;4.432;2023-06-14T11:02:46;28.40;66.00
25300;DHT22;13241;51.208;4.432;2023-06-14T11:05:15;28.50;65.80
25300;DHT22;13241;51.208;4.432;2023-06-14T11:08:15;28.60;65.50
25300;DHT22;13241;51.208;4.432;2023-06-14T11:10:44;28.50;65.40
25300;DHT22;13241;51.208;4.432;2023-06-14T11:13:16;28.50;65.30
25300;DHT22;13241;51.208;4.432;2023-06-14T11:15:45;28.50;65.60
25300;DHT22;13241;51.208;4.432;2023-06-14T11:18:13;28.60;64.60
25300;DHT22;13241;51.208;4.432;2023-06-14T11:20:40;28.50;64.70
25300;DHT22;13241;51.208;4.432;2023-06-14T11:23:07;28.60;64.00
25300;DHT22;13241;51.208;4.432;2023-06-14T11:25:34;28.30;64.50
25300;DHT22;13241;51.208;4.432;2023-06-14T11:28:01;28.40;64.90
25300;DHT22;13241;51.208;4.432;2023-06-14T11:30:28;28.70;65.10
25300;DHT22;13241;51.208;4.432;2023-06-14T11:32:55;28.60;64.20
25300;DHT22;13241;51.208;4.432;2023-06-14T11:35:25;28.70;64.30
25300;DHT22;13241;51.208;4.432;2023-06-14T11:37:53;28.70;64.60
25300;DHT22;13241;51.208;4.432;2023-06-14T11:40:26;28.90;65.10
25300;DHT22;13241;51.208;4.432;2023-06-14T11:43:00;28.90;65.40
25300;DHT22;13241;51.208;4.432;2023-06-14T11:45:27;29.00;64.80
25300;DHT22;13241;51.208;4.432;2023-06-14T11:47:55;29.10;64.80
25300;DHT22;13241;51.208;4.432;2023-06-14T11:50:26;29.10;64.20
25300;DHT22;13241;51.208;4.432;2023-06-14T11:52:57;28.70;65.10
25300;DHT22;13241;51.208;4.432;2023-06-14T11:55:26;28.70;65.70
25300;DHT22;13241;51.208;4.432;2023-06-14T11:57:56;28.80;65.00
25300;DHT22;13241;51.208;4.432;2023-06-14T12:00:26;28.90;65.30
25300;DHT22;13241;51.208;4.432;2023-06-14T12:02:55;29.10;65.50
25300;DHT22;13241;51.208;4.432;2023-06-14T12:05:25;29.30;65.00
25300;DHT22;13241;51.208;4.432;2023-06-14T12:08:00;29.30;64.20
25300;DHT22;13241;51.208;4.432;2023-06-14T12:10:29;29.40;64.20
25300;DHT22;13241;51.208;4.432;2023-06-14T12:12:57;29.10;62.70
25300;DHT22;13241;51.208;4.432;2023-06-14T12:15:28;29.10;63.30
25300;DHT22;13241;51.208;4.432;2023-06-14T12:17:58;29.10;62.90
25300;DHT22;13241;51.208;4.432;2023-06-14T12:20:30;29.00;62.40
25300;DHT22;13241;51.208;4.432;2023-06-14T12:23:03;28.90;62.20
25300;DHT22;13241;51.208;4.432;2023-06-14T12:25:32;29.10;62.70
25300;DHT22;13241;51.208;4.432;2023-06-14T12:28:09;29.00;62.90
25300;DHT22;13241;51.208;4.432;2023-06-14T12:30:37;29.00;63.30
25300;DHT22;13241;51.208;4.432;2023-06-14T12:33:05;29.00;62.90
25300;DHT22;13241;51.208;4.432;2023-06-14T12:35:32;29.10;62.60
25300;DHT22;13241;51.208;4.432;2023-06-14T12:38:00;28.80;62.20
25300;DHT22;13241;51.208;4.432;2023-06-14T12:40:27;28.70;61.80
25300;DHT22;13241;51.208;4.432;2023-06-14T12:42:54;28.60;62.50
25300;DHT22;13241;51.208;4.432;2023-06-14T12:45:21;28.70;61.90
25300;DHT22;13241;51.208;4.432;2023-06-14T12:47:47;28.70;61.60
25300;DHT22;13241;51.208;4.432;2023-06-14T12:50:14;28.70;61.40
25300;DHT22;13241;51.208;4.432;2023-06-14T12:52:42;28.40;60.50
25300;DHT22;13241;51.208;4.432;2023-06-14T12:55:09;28.50;60.90
25300;DHT22;13241;51.208;4.432;2023-06-14T12:57:36;28.60;60.90
25300;DHT22;13241;51.208;4.432;2023-06-14T13:00:05;28.70;61.20
25300;DHT22;13241;51.208;4.432;2023-06-14T13:02:34;28.70;60.10
25300;DHT22;13241;51.208;4.432;2023-06-14T13:05:01;28.90;60.10
25300;DHT22;13241;51.208;4.432;2023-06-14T13:07:30;28.90;59.60
25300;DHT22;13241;51.208;4.432;2023-06-14T13:09:57;29.10;59.60
25300;DHT22;13241;51.208;4.432;2023-06-14T13:12:24;29.20;59.60
25300;DHT22;13241;51.208;4.432;2023-06-14T13:14:51;29.40;59.10
25300;DHT22;13241;51.208;4.432;2023-06-14T13:17:18;29.30;58.80
25300;DHT22;13241;51.208;4.432;2023-06-14T13:19:45;29.30;58.40
25300;DHT22;13241;51.208;4.432;2023-06-14T13:22:12;29.00;58.60
25300;DHT22;13241;51.208;4.432;2023-06-14T13:24:39;29.30;59.60
25300;DHT22;13241;51.208;4.432;2023-06-14T13:27:06;30.40;57.70
25300;DHT22;13241;51.208;4.432;2023-06-14T13:29:33;31.50;56.70
25300;DHT22;13241;51.208;4.432;2023-06-14T13:32:03;32.00;55.50
25300;DHT22;13241;51.208;4.432;2023-06-14T13:34:30;32.50;55.60
25300;DHT22;13241;51.208;4.432;2023-06-14T13:36:57;32.80;54.40
25300;DHT22;13241;51.208;4.432;2023-06-14T13:39:26;32.80;54.90
25300;DHT22;13241;51.208;4.432;2023-06-14T13:41:53;32.90;54.50
25300;DHT22;13241;51.208;4.432;2023-06-14T13:44:20;32.90;54.40
25300;DHT22;13241;51.208;4.432;2023-06-14T13:46:48;33.20;54.70
25300;DHT22;13241;51.208;4.432;2023-06-14T13:49:15;33.90;54.60
25300;DHT22;13241;51.208;4.432;2023-06-14T13:51:41;34.50;52.40
25300;DHT22;13241;51.208;4.432;2023-06-14T13:54:08;34.70;51.90
25300;DHT22;13241;51.208;4.432;2023-06-14T13:56:35;34.70;51.50
25300;DHT22;13241;51.208;4.432;2023-06-14T13:59:02;34.80;51.10
25300;DHT22;13241;51.208;4.432;2023-06-14T14:01:29;35.10;51.70
25300;DHT22;13241;51.208;4.432;2023-06-14T14:03:56;35.20;51.10
25300;DHT22;13241;51.208;4.432;2023-06-14T14:06:25;35.20;50.80
25300;DHT22;13241;51.208;4.432;2023-06-14T14:08:52;35.20;50.30
25300;DHT22;13241;51.208;4.432;2023-06-14T14:11:19;35.20;51.50
25300;DHT22;13241;51.208;4.432;2023-06-14T14:13:47;35.60;50.20
25300;DHT22;13241;51.208;4.432;2023-06-14T14:16:15;36.00;50.10
25300;DHT22;13241;51.208;4.432;2023-06-14T14:18:42;36.50;49.80
25300;DHT22;13241;51.208;4.432;2023-06-14T14:21:09;36.80;49.60
25300;DHT22;13241;51.208;4.432;2023-06-14T14:23:36;36.80;48.60
25300;DHT22;13241;51.208;4.432;2023-06-14T14:26:06;35.50;49.80
25300;DHT22;13241;51.208;4.432;2023-06-14T14:28:33;35.40;50.00
25300;DHT22;13241;51.208;4.432;2023-06-14T14:31:01;35.40;49.70
25300;DHT22;13241;51.208;4.432;2023-06-14T14:33:28;35.40;49.90
25300;DHT22;13241;51.208;4.432;2023-06-14T14:35:55;35.30;49.30
25300;DHT22;13241;51.208;4.432;2023-06-14T14:38:22;35.10;49.90
25300;DHT22;13241;51.208;4.432;2023-06-14T14:40:49;35.80;50.10
25300;DHT22;13241;51.208;4.432;2023-06-14T14:43:16;35.90;50.20
25300;DHT22;13241;51.208;4.432;2023-06-14T14:45:42;36.00;50.80
25300;DHT22;13241;51.208;4.432;2023-06-14T14:48:09;36.50;49.90
25300;DHT22;13241;51.208;4.432;2023-06-14T14:50:37;36.70;49.70
25300;DHT22;13241;51.208;4.432;2023-06-14T14:53:05;36.90;49.70
25300;DHT22;13241;51.208;4.432;2023-06-14T14:55:32;37.20;48.80
25300;DHT22;13241;51.208;4.432;2023-06-14T14:58:01;37.00;48.90
25300;DHT22;13241;51.208;4.432;2023-06-14T15:00:30;37.10;48.50
25300;DHT22;13241;51.208;4.432;2023-06-14T15:02:57;36.80;49.30
25300;DHT22;13241;51.208;4.432;2023-06-14T15:05:24;36.70;48.70
25300;DHT22;13241;51.208;4.432;2023-06-14T15:07:51;36.50;49.00
25300;DHT22;13241;51.208;4.432;2023-06-14T15:10:19;36.90;49.20
25300;DHT22;13241;51.208;4.432;2023-06-14T15:12:45;37.00;47.70
25300;DHT22;13241;51.208;4.432;2023-06-14T15:15:12;36.90;48.50
25300;DHT22;13241;51.208;4.432;2023-06-14T15:17:39;37.60;47.80
25300;DHT22;13241;51.208;4.432;2023-06-14T15:20:07;36.90;47.40
25300;DHT22;13241;51.208;4.432;2023-06-14T15:22:34;37.10;48.90
25300;DHT22;13241;51.208;4.432;2023-06-14T15:25:01;37.90;48.00
25300;DHT22;13241;51.208;4.432;2023-06-14T15:27:28;38.10;48.10
25300;DHT22;13241;51.208;4.432;2023-06-14T15:29:55;38.30;47.10
25300;DHT22;13241;51.208;4.432;2023-06-14T15:32:21;38.90;47.60
25300;DHT22;13241;51.208;4.432;2023-06-14T15:34:48;37.80;47.20
25300;DHT22;13241;51.208;4.432;2023-06-14T15:37:16;37.20;48.00
25300;DHT22;13241;51.208;4.432;2023-06-14T15:39:42;36.80;48.70
25300;DHT22;13241;51.208;4.432;2023-06-14T15:42:09;36.40;49.30
25300;DHT22;13241;51.208;4.432;2023-06-14T15:44:38;36.80;50.70